sensor_id;sensor_type;location;lat;lon;timestamp;P1;durP1;ratioP1;P2;durP2;ratioP2
14007;SDS011;61651;45.508;12.232;2023-04-24T00:01:27;9.63;;;7.38;;
14007;SDS011;61651;45.508;12.232;2023-04-24T00:04:31;10.95;;;7.68;;
14007;SDS011;61651;45.508;12.232;2023-04-24T00:07:33;7.63;;;6.85;;
14007;SDS011;61651;45.508;12.232;2023-04-24T00:10:35;10.05;;;7.07;;
14007;SDS011;61651;45.508;12.232;2023-04-24T00:13:38;9.02;;;6.80;;
14007;SDS011;61651;45.508;12.232;2023-04-24T00:16:41;9.75;;;7.30;;
14007;SDS011;61651;45.508;12.232;2023-04-24T00:19:43;9.77;;;6.97;;
14007;SDS011;61651;45.508;12.232;2023-04-24T00:22:45;8.77;;;6.82;;
14007;SDS011;61651;45.508;12.232;2023-04-24T00:25:47;9.20;;;7.20;;
14007;SDS011;61651;45.508;12.232;2023-04-24T00:28:49;9.85;;;7.38;;
14007;SDS011;61651;45.508;12.232;2023-04-24T00:31:52;8.80;;;7.90;;
14007;SDS011;61651;45.508;12.232;2023-04-24T00:34:54;9.05;;;7.25;;
14007;SDS011;61651;45.508;12.232;2023-04-24T00:37:56;8.32;;;7.35;;
14007;SDS011;61651;45.508;12.232;2023-04-24T00:40:58;8.82;;;7.80;;
14007;SDS011;61651;45.508;12.232;2023-04-24T00:44:00;8.43;;;7.60;;
14007;SDS011;61651;45.508;12.232;2023-04-24T00:47:04;9.23;;;8.25;;
14007;SDS011;61651;45.508;12.232;2023-04-24T00:50:06;10.23;;;7.30;;
14007;SDS011;61651;45.508;12.232;2023-04-24T00:53:09;9.75;;;7.30;;
14007;SDS011;61651;45.508;12.232;2023-04-24T00:56:11;9.40;;;7.55;;
14007;SDS011;61651;45.508;12.232;2023-04-24T00:59:13;9.27;;;7.55;;
14007;SDS011;61651;45.508;12.232;2023-04-24T01:02:19;8.23;;;7.43;;
14007;SDS011;61651;45.508;12.232;2023-04-24T01:05:22;10.45;;;7.22;;
14007;SDS011;61651;45.508;12.232;2023-04-24T01:08:24;12.38;;;8.40;;
14007;SDS011;61651;45.508;12.232;2023-04-24T01:11:27;8.00;;;7.28;;
14007;SDS011;61651;45.508;12.232;2023-04-24T01:14:31;8.27;;;7.30;;
14007;SDS011;61651;45.508;12.232;2023-04-24T01:17:34;9.05;;;7.80;;
14007;SDS011;61651;45.508;12.232;2023-04-24T01:20:37;8.88;;;8.07;;
14007;SDS011;61651;45.508;12.232;2023-04-24T01:23:44;9.48;;;7.72;;
14007;SDS011;61651;45.508;12.232;2023-04-24T01:26:46;8.70;;;7.80;;
14007;SDS011;61651;45.508;12.232;2023-04-24T01:29:48;12.15;;;8.15;;
14007;SDS011;61651;45.508;12.232;2023-04-24T01:32:52;12.15;;;8.10;;
14007;SDS011;61651;45.508;12.232;2023-04-24T01:35:54;9.90;;;8.85;;
14007;SDS011;61651;45.508;12.232;2023-04-24T01:38:58;9.32;;;8.38;;
14007;SDS011;61651;45.508;12.232;2023-04-24T01:42:00;11.02;;;8.80;;
14007;SDS011;61651;45.508;12.232;2023-04-24T01:45:03;9.93;;;8.93;;
14007;SDS011;61651;45.508;12.232;2023-04-24T01:48:06;9.43;;;8.52;;
14007;SDS011;61651;45.508;12.232;2023-04-24T01:51:08;10.85;;;9.63;;
14007;SDS011;61651;45.508;12.232;2023-04-24T01:54:11;13.05;;;9.02;;
14007;SDS011;61651;45.508;12.232;2023-04-24T01:57:14;11.85;;;9.38;;
14007;SDS011;61651;45.508;12.232;2023-04-24T02:00:17;10.18;;;9.18;;
14007;SDS011;61651;45.508;12.232;2023-04-24T02:03:19;16.92;;;9.18;;
14007;SDS011;61651;45.508;12.232;2023-04-24T02:06:21;11.05;;;9.27;;
14007;SDS011;61651;45.508;12.232;2023-04-24T02:09:25;10.40;;;9.05;;
14007;SDS011;61651;45.508;12.232;2023-04-24T02:12:27;11.13;;;8.90;;
14007;SDS011;61651;45.508;12.232;2023-04-24T02:15:29;9.43;;;8.48;;
14007;SDS011;61651;45.508;12.232;2023-04-24T02:18:31;9.63;;;8.73;;
14007;SDS011;61651;45.508;12.232;2023-04-24T02:21:32;10.70;;;8.25;;
14007;SDS011;61651;45.508;12.232;2023-04-24T02:24:36;9.35;;;8.45;;
14007;SDS011;61651;45.508;12.232;2023-04-24T02:27:38;11.32;;;8.85;;
14007;SDS011;61651;45.508;12.232;2023-04-24T02:30:40;10.32;;;9.27;;
14007;SDS011;61651;45.508;12.232;2023-04-24T02:33:42;9.65;;;7.60;;
14007;SDS011;61651;45.508;12.232;2023-04-24T02:36:44;10.73;;;8.43;;
14007;SDS011;61651;45.508;12.232;2023-04-24T02:39:47;11.75;;;8.02;;
14007;SDS011;61651;45.508;12.232;2023-04-24T02:42:49;8.30;;;7.50;;
14007;SDS011;61651;45.508;12.232;2023-04-24T02:45:51;11.68;;;8.02;;
14007;SDS011;61651;45.508;12.232;2023-04-24T02:48:53;10.02;;;7.32;;
14007;SDS011;61651;45.508;12.232;2023-04-24T02:51:55;8.48;;;7.57;;
14007;SDS011;61651;45.508;12.232;2023-04-24T02:54:58;8.27;;;7.47;;
14007;SDS011;61651;45.508;12.232;2023-04-24T02:58:00;8.68;;;7.72;;
14007;SDS011;61651;45.508;12.232;2023-04-24T03:01:02;11.50;;;7.85;;
14007;SDS011;61651;45.508;12.232;2023-04-24T03:04:04;11.98;;;8.38;;
14007;SDS011;61651;45.508;12.232;2023-04-24T03:07:06;8.55;;;6.95;;
14007;SDS011;61651;45.508;12.232;2023-04-24T03:10:09;8.13;;;7.32;;
14007;SDS011;61651;45.508;12.232;2023-04-24T03:13:11;10.45;;;7.82;;
14007;SDS011;61651;45.508;12.232;2023-04-24T03:16:13;8.68;;;7.78;;
14007;SDS011;61651;45.508;12.232;2023-04-24T03:19:15;8.15;;;7.35;;
14007;SDS011;61651;45.508;12.232;2023-04-24T03:22:17;9.95;;;8.07;;
14007;SDS011;61651;45.508;12.232;2023-04-24T03:25:21;9.25;;;7.90;;
14007;SDS011;61651;45.508;12.232;2023-04-24T03:28:23;9.88;;;7.60;;
14007;SDS011;61651;45.508;12.232;2023-04-24T03:31:25;10.57;;;8.50;;
14007;SDS011;61651;45.508;12.232;2023-04-24T03:34:27;12.35;;;9.15;;
14007;SDS011;61651;45.508;12.232;2023-04-24T03:37:29;9.98;;;8.98;;
14007;SDS011;61651;45.508;12.232;2023-04-24T03:40:32;9.68;;;8.70;;
14007;SDS011;61651;45.508;12.232;2023-04-24T03:43:34;10.75;;;8.63;;
14007;SDS011;61651;45.508;12.232;2023-04-24T03:46:36;10.88;;;8.73;;
14007;SDS011;61651;45.508;12.232;2023-04-24T03:49:38;10.93;;;8.38;;
14007;SDS011;61651;45.508;12.232;2023-04-24T03:52:40;9.27;;;8.30;;
14007;SDS011;61651;45.508;12.232;2023-04-24T03:55:43;10.02;;;8.45;;
14007;SDS011;61651;45.508;12.232;2023-04-24T03:58:45;9.82;;;7.95;;
14007;SDS011;61651;45.508;12.232;2023-04-24T04:01:47;9.85;;;8.15;;
14007;SDS011;61651;45.508;12.232;2023-04-24T04:04:49;8.05;;;7.25;;
14007;SDS011;61651;45.508;12.232;2023-04-24T04:07:51;9.93;;;7.70;;
14007;SDS011;61651;45.508;12.232;2023-04-24T04:10:54;11.93;;;7.90;;
14007;SDS011;61651;45.508;12.232;2023-04-24T04:13:56;8.90;;;7.63;;
14007;SDS011;61651;45.508;12.232;2023-04-24T04:16:58;10.68;;;8.55;;
14007;SDS011;61651;45.508;12.232;2023-04-24T04:20:00;10.60;;;6.97;;
14007;SDS011;61651;45.508;12.232;2023-04-24T04:23:07;8.63;;;7.72;;
14007;SDS011;61651;45.508;12.232;2023-04-24T04:26:10;10.20;;;7.13;;
14007;SDS011;61651;45.508;12.232;2023-04-24T04:29:12;10.57;;;8.25;;
14007;SDS011;61651;45.508;12.232;2023-04-24T04:32:15;8.23;;;7.43;;
14007;SDS011;61651;45.508;12.232;2023-04-24T04:35:17;9.50;;;7.57;;
14007;SDS011;61651;45.508;12.232;2023-04-24T04:38:19;9.95;;;7.90;;
14007;SDS011;61651;45.508;12.232;2023-04-24T04:41:23;8.80;;;7.38;;
14007;SDS011;61651;45.508;12.232;2023-04-24T04:44:25;9.40;;;8.10;;
14007;SDS011;61651;45.508;12.232;2023-04-24T04:47:27;11.27;;;7.70;;
14007;SDS011;61651;45.508;12.232;2023-04-24T04:50:31;9.90;;;7.88;;
14007;SDS011;61651;45.508;12.232;2023-04-24T04:53:33;11.30;;;7.97;;
14007;SDS011;61651;45.508;12.232;2023-04-24T04:56:37;9.23;;;7.28;;
14007;SDS011;61651;45.508;12.232;2023-04-24T04:59:39;10.40;;;7.68;;
14007;SDS011;61651;45.508;12.232;2023-04-24T05:02:42;9.00;;;8.00;;
14007;SDS011;61651;45.508;12.232;2023-04-24T05:05:44;10.32;;;8.13;;
14007;SDS011;61651;45.508;12.232;2023-04-24T05:08:46;9.30;;;7.80;;
14007;SDS011;61651;45.508;12.232;2023-04-24T05:11:50;10.38;;;8.00;;
14007;SDS011;61651;45.508;12.232;2023-04-24T05:14:52;12.80;;;9.10;;
14007;SDS011;61651;45.508;12.232;2023-04-24T05:17:54;11.40;;;8.77;;
14007;SDS011;61651;45.508;12.232;2023-04-24T05:20:55;12.38;;;8.25;;
14007;SDS011;61651;45.508;12.232;2023-04-24T05:23:57;11.43;;;8.80;;
14007;SDS011;61651;45.508;12.232;2023-04-24T05:27:01;8.57;;;7.68;;
14007;SDS011;61651;45.508;12.232;2023-04-24T05:30:05;9.05;;;8.15;;
14007;SDS011;61651;45.508;12.232;2023-04-24T05:33:07;9.05;;;8.15;;
14007;SDS011;61651;45.508;12.232;2023-04-24T05:36:09;12.70;;;8.77;;
14007;SDS011;61651;45.508;12.232;2023-04-24T05:39:11;10.68;;;7.95;;
14007;SDS011;61651;45.508;12.232;2023-04-24T05:42:15;10.25;;;8.30;;
14007;SDS011;61651;45.508;12.232;2023-04-24T05:45:17;11.20;;;8.63;;
14007;SDS011;61651;45.508;12.232;2023-04-24T05:48:19;9.18;;;8.27;;
14007;SDS011;61651;45.508;12.232;2023-04-24T05:51:22;11.23;;;8.43;;
14007;SDS011;61651;45.508;12.232;2023-04-24T05:54:23;12.25;;;9.05;;
14007;SDS011;61651;45.508;12.232;2023-04-24T05:57:27;14.25;;;9.00;;
14007;SDS011;61651;45.508;12.232;2023-04-24T06:00:29;12.95;;;8.63;;
14007;SDS011;61651;45.508;12.232;2023-04-24T06:03:31;11.38;;;8.98;;
14007;SDS011;61651;45.508;12.232;2023-04-24T06:06:33;11.93;;;8.43;;
14007;SDS011;61651;45.508;12.232;2023-04-24T06:09:36;12.57;;;8.77;;
14007;SDS011;61651;45.508;12.232;2023-04-24T06:12:39;10.88;;;8.40;;
14007;SDS011;61651;45.508;12.232;2023-04-24T06:15:41;10.63;;;8.57;;
14007;SDS011;61651;45.508;12.232;2023-04-24T06:18:43;11.18;;;9.35;;
14007;SDS011;61651;45.508;12.232;2023-04-24T06:21:47;12.20;;;8.82;;
14007;SDS011;61651;45.508;12.232;2023-04-24T06:24:49;14.30;;;10.10;;
14007;SDS011;61651;45.508;12.232;2023-04-24T06:27:52;12.50;;;9.18;;
14007;SDS011;61651;45.508;12.232;2023-04-24T06:30:54;11.88;;;9.57;;
14007;SDS011;61651;45.508;12.232;2023-04-24T06:33:56;12.45;;;9.85;;
14007;SDS011;61651;45.508;12.232;2023-04-24T06:36:58;12.52;;;9.88;;
14007;SDS011;61651;45.508;12.232;2023-04-24T06:40:00;13.77;;;9.10;;
14007;SDS011;61651;45.508;12.232;2023-04-24T06:43:04;11.27;;;8.85;;
14007;SDS011;61651;45.508;12.232;2023-04-24T06:46:06;10.85;;;8.23;;
14007;SDS011;61651;45.508;12.232;2023-04-24T06:49:08;11.80;;;9.68;;
14007;SDS011;61651;45.508;12.232;2023-04-24T06:52:10;11.50;;;8.88;;
14007;SDS011;61651;45.508;12.232;2023-04-24T06:55:12;10.43;;;8.45;;
14007;SDS011;61651;45.508;12.232;2023-04-24T06:58:17;8.57;;;7.70;;
14007;SDS011;61651;45.508;12.232;2023-04-24T07:01:19;8.27;;;7.13;;
14007;SDS011;61651;45.508;12.232;2023-04-24T07:04:21;8.30;;;7.47;;
14007;SDS011;61651;45.508;12.232;2023-04-24T07:07:24;9.70;;;6.47;;
14007;SDS011;61651;45.508;12.232;2023-04-24T07:10:26;8.40;;;6.53;;
14007;SDS011;61651;45.508;12.232;2023-04-24T07:13:30;7.40;;;5.65;;
14007;SDS011;61651;45.508;12.232;2023-04-24T07:16:32;5.63;;;5.03;;
14007;SDS011;61651;45.508;12.232;2023-04-24T07:19:34;5.85;;;4.55;;
14007;SDS011;61651;45.508;12.232;2023-04-24T07:22:37;5.68;;;4.40;;
14007;SDS011;61651;45.508;12.232;2023-04-24T07:25:39;5.97;;;3.90;;
14007;SDS011;61651;45.508;12.232;2023-04-24T07:28:42;4.70;;;4.18;;
14007;SDS011;61651;45.508;12.232;2023-04-24T07:31:44;4.10;;;3.70;;
14007;SDS011;61651;45.508;12.232;2023-04-24T07:34:46;4.47;;;3.92;;
14007;SDS011;61651;45.508;12.232;2023-04-24T07:37:48;7.07;;;4.20;;
14007;SDS011;61651;45.508;12.232;2023-04-24T07:40:50;4.63;;;4.22;;
14007;SDS011;61651;45.508;12.232;2023-04-24T07:43:54;5.47;;;4.60;;
14007;SDS011;61651;45.508;12.232;2023-04-24T07:46:55;7.57;;;4.45;;
14007;SDS011;61651;45.508;12.232;2023-04-24T07:49:58;9.07;;;5.32;;
14007;SDS011;61651;45.508;12.232;2023-04-24T07:53:00;7.30;;;5.07;;
14007;SDS011;61651;45.508;12.232;2023-04-24T07:56:02;5.32;;;4.78;;
14007;SDS011;61651;45.508;12.232;2023-04-24T07:59:05;9.25;;;4.68;;
14007;SDS011;61651;45.508;12.232;2023-04-24T08:02:07;6.80;;;4.97;;
14007;SDS011;61651;45.508;12.232;2023-04-24T08:05:09;6.95;;;4.72;;
14007;SDS011;61651;45.508;12.232;2023-04-24T08:08:11;5.38;;;4.50;;
14007;SDS011;61651;45.508;12.232;2023-04-24T08:11:16;7.75;;;4.18;;
14007;SDS011;61651;45.508;12.232;2023-04-24T08:14:19;7.10;;;4.82;;
14007;SDS011;61651;45.508;12.232;2023-04-24T08:17:21;5.38;;;4.78;;
14007;SDS011;61651;45.508;12.232;2023-04-24T08:20:25;6.30;;;4.60;;
14007;SDS011;61651;45.508;12.232;2023-04-24T08:23:27;6.35;;;5.10;;
14007;SDS011;61651;45.508;12.232;2023-04-24T08:26:29;5.70;;;5.10;;
14007;SDS011;61651;45.508;12.232;2023-04-24T08:29:32;7.40;;;5.43;;
14007;SDS011;61651;45.508;12.232;2023-04-24T08:32:35;5.65;;;5.05;;
14007;SDS011;61651;45.508;12.232;2023-04-24T08:35:37;6.35;;;5.60;;
14007;SDS011;61651;45.508;12.232;2023-04-24T08:38:40;9.55;;;5.93;;
14007;SDS011;61651;45.508;12.232;2023-04-24T08:41:43;7.35;;;5.50;;
14007;SDS011;61651;45.508;12.232;2023-04-24T08:44:48;6.18;;;5.60;;
14007;SDS011;61651;45.508;12.232;2023-04-24T08:47:50;8.60;;;5.68;;
14007;SDS011;61651;45.508;12.232;2023-04-24T08:50:54;7.32;;;4.97;;
14007;SDS011;61651;45.508;12.232;2023-04-24T08:53:57;6.00;;;5.20;;
14007;SDS011;61651;45.508;12.232;2023-04-24T08:57:00;5.80;;;5.30;;
14007;SDS011;61651;45.508;12.232;2023-04-24T09:00:06;7.38;;;5.55;;
14007;SDS011;61651;45.508;12.232;2023-04-24T09:03:08;5.43;;;4.95;;
14007;SDS011;61651;45.508;12.232;2023-04-24T09:06:11;5.93;;;5.30;;
14007;SDS011;61651;45.508;12.232;2023-04-24T09:09:14;5.35;;;4.85;;
14007;SDS011;61651;45.508;12.232;2023-04-24T09:12:17;5.30;;;4.80;;
14007;SDS011;61651;45.508;12.232;2023-04-24T09:15:21;5.72;;;4.45;;
14007;SDS011;61651;45.508;12.232;2023-04-24T09:18:25;7.93;;;5.05;;
14007;SDS011;61651;45.508;12.232;2023-04-24T09:21:31;4.78;;;3.38;;
14007;SDS011;61651;45.508;12.232;2023-04-24T09:24:34;5.53;;;4.10;;
14007;SDS011;61651;45.508;12.232;2023-04-24T09:27:36;7.28;;;5.10;;
14007;SDS011;61651;45.508;12.232;2023-04-24T09:30:46;4.90;;;4.50;;
14007;SDS011;61651;45.508;12.232;2023-04-24T09:34:03;6.05;;;5.35;;
14007;SDS011;61651;45.508;12.232;2023-04-24T09:37:07;6.53;;;5.68;;
14007;SDS011;61651;45.508;12.232;2023-04-24T09:40:10;5.47;;;4.45;;
14007;SDS011;61651;45.508;12.232;2023-04-24T09:43:13;5.65;;;4.20;;
14007;SDS011;61651;45.508;12.232;2023-04-24T09:46:16;5.32;;;3.80;;
14007;SDS011;61651;45.508;12.232;2023-04-24T09:49:22;5.03;;;3.80;;
14007;SDS011;61651;45.508;12.232;2023-04-24T09:52:25;4.32;;;3.83;;
14007;SDS011;61651;45.508;12.232;2023-04-24T09:55:27;5.10;;;4.32;;
14007;SDS011;61651;45.508;12.232;2023-04-24T09:58:29;4.20;;;3.78;;
14007;SDS011;61651;45.508;12.232;2023-04-24T10:01:33;5.15;;;3.95;;
14007;SDS011;61651;45.508;12.232;2023-04-24T10:04:36;4.35;;;3.95;;
14007;SDS011;61651;45.508;12.232;2023-04-24T10:07:38;3.88;;;3.25;;
14007;SDS011;61651;45.508;12.232;2023-04-24T10:10:40;4.68;;;3.17;;
14007;SDS011;61651;45.508;12.232;2023-04-24T10:13:43;3.10;;;2.80;;
14007;SDS011;61651;45.508;12.232;2023-04-24T10:16:47;4.10;;;3.08;;
14007;SDS011;61651;45.508;12.232;2023-04-24T10:19:49;3.65;;;3.20;;
14007;SDS011;61651;45.508;12.232;2023-04-24T10:22:52;4.13;;;3.00;;
14007;SDS011;61651;45.508;12.232;2023-04-24T10:25:55;3.47;;;3.17;;
14007;SDS011;61651;45.508;12.232;2023-04-24T10:28:57;5.28;;;3.20;;
14007;SDS011;61651;45.508;12.232;2023-04-24T10:32:02;3.35;;;3.03;;
14007;SDS011;61651;45.508;12.232;2023-04-24T10:35:04;3.42;;;2.55;;
14007;SDS011;61651;45.508;12.232;2023-04-24T10:38:09;4.25;;;2.83;;
14007;SDS011;61651;45.508;12.232;2023-04-24T10:41:13;3.75;;;3.05;;
14007;SDS011;61651;45.508;12.232;2023-04-24T10:44:19;2.88;;;2.67;;
14007;SDS011;61651;45.508;12.232;2023-04-24T10:47:25;3.35;;;3.03;;
14007;SDS011;61651;45.508;12.232;2023-04-24T10:50:27;3.50;;;3.05;;
14007;SDS011;61651;45.508;12.232;2023-04-24T10:53:30;5.35;;;3.30;;
14007;SDS011;61651;45.508;12.232;2023-04-24T10:56:32;3.13;;;2.83;;
14007;SDS011;61651;45.508;12.232;2023-04-24T10:59:34;2.63;;;2.28;;
14007;SDS011;61651;45.508;12.232;2023-04-24T11:02:40;3.75;;;2.30;;
14007;SDS011;61651;45.508;12.232;2023-04-24T11:05:49;2.45;;;2.25;;
14007;SDS011;61651;45.508;12.232;2023-04-24T11:08:52;3.65;;;1.83;;
14007;SDS011;61651;45.508;12.232;2023-04-24T11:12:05;2.40;;;1.80;;
14007;SDS011;61651;45.508;12.232;2023-04-24T11:15:10;1.88;;;1.63;;
14007;SDS011;61651;45.508;12.232;2023-04-24T11:18:15;1.50;;;1.40;;
14007;SDS011;61651;45.508;12.232;2023-04-24T11:21:17;1.30;;;1.20;;
14007;SDS011;61651;45.508;12.232;2023-04-24T11:24:26;2.00;;;1.20;;
14007;SDS011;61651;45.508;12.232;2023-04-24T11:27:31;1.50;;;1.40;;
14007;SDS011;61651;45.508;12.232;2023-04-24T11:30:39;1.58;;;1.48;;
14007;SDS011;61651;45.508;12.232;2023-04-24T11:33:44;1.35;;;1.23;;
14007;SDS011;61651;45.508;12.232;2023-04-24T11:36:46;1.42;;;1.33;;
14007;SDS011;61651;45.508;12.232;2023-04-24T11:39:50;1.10;;;1.00;;
14007;SDS011;61651;45.508;12.232;2023-04-24T11:42:53;1.02;;;1.02;;
14007;SDS011;61651;45.508;12.232;2023-04-24T11:45:59;1.20;;;1.10;;
14007;SDS011;61651;45.508;12.232;2023-04-24T11:49:02;1.95;;;1.10;;
14007;SDS011;61651;45.508;12.232;2023-04-24T11:52:05;0.90;;;0.90;;
14007;SDS011;61651;45.508;12.232;2023-04-24T11:55:07;1.20;;;1.10;;
14007;SDS011;61651;45.508;12.232;2023-04-24T11:58:24;1.30;;;1.20;;
14007;SDS011;61651;45.508;12.232;2023-04-24T12:01:27;0.90;;;0.90;;
14007;SDS011;61651;45.508;12.232;2023-04-24T12:04:38;1.35;;;1.25;;
14007;SDS011;61651;45.508;12.232;2023-04-24T12:07:41;1.00;;;1.00;;
14007;SDS011;61651;45.508;12.232;2023-04-24T12:10:43;1.23;;;1.13;;
14007;SDS011;61651;45.508;12.232;2023-04-24T12:13:45;0.90;;;0.90;;
14007;SDS011;61651;45.508;12.232;2023-04-24T12:16:47;1.13;;;1.02;;
14007;SDS011;61651;45.508;12.232;2023-04-24T12:19:51;0.90;;;0.90;;
14007;SDS011;61651;45.508;12.232;2023-04-24T12:22:54;1.10;;;1.10;;
14007;SDS011;61651;45.508;12.232;2023-04-24T12:25:59;0.90;;;0.90;;
14007;SDS011;61651;45.508;12.232;2023-04-24T12:29:02;0.90;;;0.90;;
14007;SDS011;61651;45.508;12.232;2023-04-24T12:32:05;1.75;;;0.93;;
14007;SDS011;61651;45.508;12.232;2023-04-24T12:35:20;0.80;;;0.80;;
14007;SDS011;61651;45.508;12.232;2023-04-24T12:38:24;1.00;;;1.00;;
14007;SDS011;61651;45.508;12.232;2023-04-24T12:41:27;1.00;;;1.00;;
14007;SDS011;61651;45.508;12.232;2023-04-24T12:44:32;0.80;;;0.80;;
14007;SDS011;61651;45.508;12.232;2023-04-24T12:47:37;0.70;;;0.70;;
14007;SDS011;61651;45.508;12.232;2023-04-24T12:50:41;1.80;;;0.88;;
14007;SDS011;61651;45.508;12.232;2023-04-24T12:53:44;0.80;;;0.80;;
14007;SDS011;61651;45.508;12.232;2023-04-24T12:56:45;0.90;;;0.90;;
14007;SDS011;61651;45.508;12.232;2023-04-24T12:59:47;0.93;;;0.93;;
14007;SDS011;61651;45.508;12.232;2023-04-24T13:02:49;1.05;;;0.95;;
14007;SDS011;61651;45.508;12.232;2023-04-24T13:05:53;0.90;;;0.90;;
14007;SDS011;61651;45.508;12.232;2023-04-24T13:08:55;0.70;;;0.70;;
14007;SDS011;61651;45.508;12.232;2023-04-24T13:11:57;0.80;;;0.80;;
14007;SDS011;61651;45.508;12.232;2023-04-24T13:15:01;0.90;;;0.90;;
14007;SDS011;61651;45.508;12.232;2023-04-24T13:18:03;0.80;;;0.80;;
14007;SDS011;61651;45.508;12.232;2023-04-24T13:21:07;1.08;;;1.08;;
14007;SDS011;61651;45.508;12.232;2023-04-24T13:24:09;1.17;;;0.80;;
14007;SDS011;61651;45.508;12.232;2023-04-24T13:27:11;0.80;;;0.80;;
14007;SDS011;61651;45.508;12.232;2023-04-24T13:30:13;1.08;;;1.08;;
14007;SDS011;61651;45.508;12.232;2023-04-24T13:33:15;0.70;;;0.70;;
14007;SDS011;61651;45.508;12.232;2023-04-24T13:36:18;0.80;;;0.80;;
14007;SDS011;61651;45.508;12.232;2023-04-24T13:39:20;0.90;;;0.90;;
14007;SDS011;61651;45.508;12.232;2023-04-24T13:42:22;0.85;;;0.80;;
14007;SDS011;61651;45.508;12.232;2023-04-24T13:45:25;0.93;;;0.93;;
14007;SDS011;61651;45.508;12.232;2023-04-24T13:48:27;1.05;;;0.95;;
14007;SDS011;61651;45.508;12.232;2023-04-24T13:51:30;0.88;;;0.88;;
14007;SDS011;61651;45.508;12.232;2023-04-24T13:54:35;0.82;;;0.82;;
14007;SDS011;61651;45.508;12.232;2023-04-24T13:57:38;1.17;;;1.00;;
14007;SDS011;61651;45.508;12.232;2023-04-24T14:00:40;1.00;;;1.00;;
14007;SDS011;61651;45.508;12.232;2023-04-24T14:03:42;0.80;;;0.80;;
14007;SDS011;61651;45.508;12.232;2023-04-24T14:06:46;0.90;;;0.90;;
14007;SDS011;61651;45.508;12.232;2023-04-24T14:09:48;1.02;;;1.02;;
14007;SDS011;61651;45.508;12.232;2023-04-24T14:12:50;1.13;;;0.90;;
14007;SDS011;61651;45.508;12.232;2023-04-24T14:15:53;0.95;;;0.95;;
14007;SDS011;61651;45.508;12.232;2023-04-24T14:18:55;1.25;;;0.88;;
14007;SDS011;61651;45.508;12.232;2023-04-24T14:21:58;1.05;;;1.00;;
14007;SDS011;61651;45.508;12.232;2023-04-24T14:25:00;0.88;;;0.88;;
14007;SDS011;61651;45.508;12.232;2023-04-24T14:28:03;0.88;;;0.88;;
14007;SDS011;61651;45.508;12.232;2023-04-24T14:31:06;1.25;;;1.15;;
14007;SDS011;61651;45.508;12.232;2023-04-24T14:34:09;1.20;;;1.10;;
14007;SDS011;61651;45.508;12.232;2023-04-24T14:37:12;1.75;;;1.63;;
14007;SDS011;61651;45.508;12.232;2023-04-24T14:40:14;1.60;;;1.50;;
14007;SDS011;61651;45.508;12.232;2023-04-24T14:43:17;1.50;;;1.30;;
14007;SDS011;61651;45.508;12.232;2023-04-24T14:46:19;1.38;;;1.00;;
14007;SDS011;61651;45.508;12.232;2023-04-24T14:49:21;0.80;;;0.80;;
14007;SDS011;61651;45.508;12.232;2023-04-24T14:52:25;0.80;;;0.80;;
14007;SDS011;61651;45.508;12.232;2023-04-24T14:55:27;1.10;;;1.00;;
14007;SDS011;61651;45.508;12.232;2023-04-24T14:58:29;0.90;;;0.90;;
14007;SDS011;61651;45.508;12.232;2023-04-24T15:01:31;0.90;;;0.90;;
14007;SDS011;61651;45.508;12.232;2023-04-24T15:04:33;1.10;;;1.00;;
14007;SDS011;61651;45.508;12.232;2023-04-24T15:07:36;0.90;;;0.90;;
14007;SDS011;61651;45.508;12.232;2023-04-24T15:10:38;1.13;;;1.02;;
14007;SDS011;61651;45.508;12.232;2023-04-24T15:13:40;0.80;;;0.80;;
14007;SDS011;61651;45.508;12.232;2023-04-24T15:16:42;0.88;;;0.88;;
14007;SDS011;61651;45.508;12.232;2023-04-24T15:19:44;0.63;;;0.63;;
14007;SDS011;61651;45.508;12.232;2023-04-24T15:22:47;0.70;;;0.70;;
14007;SDS011;61651;45.508;12.232;2023-04-24T15:25:49;1.08;;;1.00;;
14007;SDS011;61651;45.508;12.232;2023-04-24T15:28:51;0.80;;;0.80;;
14007;SDS011;61651;45.508;12.232;2023-04-24T15:31:53;0.80;;;0.80;;
14007;SDS011;61651;45.508;12.232;2023-04-24T15:34:55;0.95;;;0.95;;
14007;SDS011;61651;45.508;12.232;2023-04-24T15:37:59;2.90;;;0.90;;
14007;SDS011;61651;45.508;12.232;2023-04-24T15:41:01;0.90;;;0.90;;
14007;SDS011;61651;45.508;12.232;2023-04-24T15:44:03;0.70;;;0.70;;
14007;SDS011;61651;45.508;12.232;2023-04-24T15:47:05;0.90;;;0.90;;
14007;SDS011;61651;45.508;12.232;2023-04-24T15:50:07;1.80;;;0.80;;
14007;SDS011;61651;45.508;12.232;2023-04-24T15:53:12;0.90;;;0.82;;
14007;SDS011;61651;45.508;12.232;2023-04-24T15:56:20;0.80;;;0.80;;
14007;SDS011;61651;45.508;12.232;2023-04-24T15:59:23;1.00;;;0.82;;
14007;SDS011;61651;45.508;12.232;2023-04-24T16:02:26;0.63;;;0.63;;
14007;SDS011;61651;45.508;12.232;2023-04-24T16:05:28;0.90;;;0.90;;
14007;SDS011;61651;45.508;12.232;2023-04-24T16:08:31;0.93;;;0.88;;
14007;SDS011;61651;45.508;12.232;2023-04-24T16:11:33;0.75;;;0.75;;
14007;SDS011;61651;45.508;12.232;2023-04-24T16:14:36;0.80;;;0.80;;
14007;SDS011;61651;45.508;12.232;2023-04-24T16:17:38;0.80;;;0.80;;
14007;SDS011;61651;45.508;12.232;2023-04-24T16:20:40;0.70;;;0.70;;
14007;SDS011;61651;45.508;12.232;2023-04-24T16:23:43;2.05;;;0.90;;
14007;SDS011;61651;45.508;12.232;2023-04-24T16:26:45;0.80;;;0.80;;
14007;SDS011;61651;45.508;12.232;2023-04-24T16:29:47;1.33;;;0.80;;
14007;SDS011;61651;45.508;12.232;2023-04-24T16:32:49;0.98;;;0.98;;
14007;SDS011;61651;45.508;12.232;2023-04-24T16:35:51;0.93;;;0.93;;
14007;SDS011;61651;45.508;12.232;2023-04-24T16:38:54;0.80;;;0.80;;
14007;SDS011;61651;45.508;12.232;2023-04-24T16:41:56;0.77;;;0.77;;
14007;SDS011;61651;45.508;12.232;2023-04-24T16:44:58;0.80;;;0.80;;
14007;SDS011;61651;45.508;12.232;2023-04-24T16:48:00;1.30;;;1.20;;
14007;SDS011;61651;45.508;12.232;2023-04-24T16:51:02;0.90;;;0.90;;
14007;SDS011;61651;45.508;12.232;2023-04-24T16:54:06;0.93;;;0.93;;
14007;SDS011;61651;45.508;12.232;2023-04-24T16:57:09;0.88;;;0.88;;
14007;SDS011;61651;45.508;12.232;2023-04-24T17:00:11;0.70;;;0.70;;
14007;SDS011;61651;45.508;12.232;2023-04-24T17:03:14;1.10;;;1.00;;
14007;SDS011;61651;45.508;12.232;2023-04-24T17:06:16;1.35;;;1.25;;
14007;SDS011;61651;45.508;12.232;2023-04-24T17:09:19;0.80;;;0.80;;
14007;SDS011;61651;45.508;12.232;2023-04-24T17:12:21;1.05;;;1.05;;
14007;SDS011;61651;45.508;12.232;2023-04-24T17:15:23;1.00;;;1.00;;
14007;SDS011;61651;45.508;12.232;2023-04-24T17:18:25;0.98;;;0.98;;
14007;SDS011;61651;45.508;12.232;2023-04-24T17:21:27;1.40;;;1.00;;
14007;SDS011;61651;45.508;12.232;2023-04-24T17:24:32;0.80;;;0.80;;
14007;SDS011;61651;45.508;12.232;2023-04-24T17:27:34;0.95;;;0.95;;
14007;SDS011;61651;45.508;12.232;2023-04-24T17:30:35;3.05;;;1.00;;
14007;SDS011;61651;45.508;12.232;2023-04-24T17:33:37;1.35;;;1.00;;
14007;SDS011;61651;45.508;12.232;2023-04-24T17:36:39;1.00;;;1.00;;
14007;SDS011;61651;45.508;12.232;2023-04-24T17:39:43;1.27;;;1.17;;
14007;SDS011;61651;45.508;12.232;2023-04-24T17:42:45;1.20;;;1.10;;
14007;SDS011;61651;45.508;12.232;2023-04-24T17:45:47;1.27;;;1.17;;
14007;SDS011;61651;45.508;12.232;2023-04-24T17:48:50;1.20;;;1.10;;
14007;SDS011;61651;45.508;12.232;2023-04-24T17:51:52;2.85;;;1.40;;
14007;SDS011;61651;45.508;12.232;2023-04-24T17:54:55;0.98;;;0.98;;
14007;SDS011;61651;45.508;12.232;2023-04-24T17:57:57;1.00;;;1.00;;
14007;SDS011;61651;45.508;12.232;2023-04-24T18:01:00;1.40;;;1.20;;